sensor_id;sensor_type;location;lat;lon;timestamp;P1;durP1;ratioP1;P2;durP2;ratioP2
68108;SDS011;54893;49.864;19.084;2022-12-05T00:00:21;67.70;;;21.93;;
68108;SDS011;54893;49.864;19.084;2022-12-05T00:05:21;110.47;;;28.53;;
68108;SDS011;54893;49.864;19.084;2022-12-05T00:10:22;117.67;;;32.73;;
68108;SDS011;54893;49.864;19.084;2022-12-05T00:15:22;113.80;;;30.83;;
68108;SDS011;54893;49.864;19.084;2022-12-05T00:20:22;118.00;;;32.13;;
68108;SDS011;54893;49.864;19.084;2022-12-05T00:25:25;135.80;;;37.05;;
68108;SDS011;54893;49.864;19.084;2022-12-05T00:30:26;119.90;;;31.80;;
68108;SDS011;54893;49.864;19.084;2022-12-05T00:35:26;130.70;;;36.77;;
68108;SDS011;54893;49.864;19.084;2022-12-05T00:40:26;110.47;;;29.23;;
68108;SDS011;54893;49.864;19.084;2022-12-05T00:45:27;93.90;;;28.97;;
68108;SDS011;54893;49.864;19.084;2022-12-05T00:50:27;109.40;;;30.73;;
68108;SDS011;54893;49.864;19.084;2022-12-05T00:55:27;82.87;;;22.87;;
68108;SDS011;54893;49.864;19.084;2022-12-05T01:00:28;113.10;;;31.40;;
68108;SDS011;54893;49.864;19.084;2022-12-05T01:05:28;122.90;;;35.53;;
68108;SDS011;54893;49.864;19.084;2022-12-05T01:10:28;101.97;;;29.77;;
68108;SDS011;54893;49.864;19.084;2022-12-05T01:15:29;118.20;;;31.33;;
68108;SDS011;54893;49.864;19.084;2022-12-05T01:20:29;105.60;;;32.00;;
68108;SDS011;54893;49.864;19.084;2022-12-05T01:25:30;100.85;;;30.48;;
68108;SDS011;54893;49.864;19.084;2022-12-05T01:30:30;99.97;;;27.83;;
68108;SDS011;54893;49.864;19.084;2022-12-05T01:35:31;103.50;;;28.10;;
68108;SDS011;54893;49.864;19.084;2022-12-05T01:40:32;119.22;;;33.53;;
68108;SDS011;54893;49.864;19.084;2022-12-05T01:45:38;117.88;;;32.47;;
68108;SDS011;54893;49.864;19.084;2022-12-05T01:50:40;116.78;;;32.13;;
68108;SDS011;54893;49.864;19.084;2022-12-05T01:55:41;102.53;;;26.63;;
68108;SDS011;54893;49.864;19.084;2022-12-05T02:00:44;102.57;;;29.60;;
68108;SDS011;54893;49.864;19.084;2022-12-05T02:05:46;103.90;;;27.27;;
68108;SDS011;54893;49.864;19.084;2022-12-05T02:10:49;90.88;;;24.92;;
68108;SDS011;54893;49.864;19.084;2022-12-05T02:15:54;99.25;;;29.70;;
68108;SDS011;54893;49.864;19.084;2022-12-05T02:21:20;102.10;;;30.00;;
68108;SDS011;54893;49.864;19.084;2022-12-05T02:32:05;82.17;;;26.13;;
68108;SDS011;54893;49.864;19.084;2022-12-05T02:47:20;107.43;;;30.73;;
68108;SDS011;54893;49.864;19.084;2022-12-05T02:52:24;103.97;;;29.60;;
68108;SDS011;54893;49.864;19.084;2022-12-05T02:57:26;99.87;;;30.03;;
68108;SDS011;54893;49.864;19.084;2022-12-05T03:02:31;88.18;;;25.85;;
68108;SDS011;54893;49.864;19.084;2022-12-05T03:07:32;92.23;;;24.67;;
68108;SDS011;54893;49.864;19.084;2022-12-05T03:12:36;104.05;;;28.77;;
68108;SDS011;54893;49.864;19.084;2022-12-05T03:17:46;83.45;;;24.08;;
68108;SDS011;54893;49.864;19.084;2022-12-05T03:22:59;86.00;;;26.03;;
68108;SDS011;54893;49.864;19.084;2022-12-05T03:28:06;82.03;;;24.50;;
68108;SDS011;54893;49.864;19.084;2022-12-05T03:33:19;91.53;;;28.57;;
68108;SDS011;54893;49.864;19.084;2022-12-05T03:38:27;95.20;;;28.58;;
68108;SDS011;54893;49.864;19.084;2022-12-05T03:59:29;112.37;;;32.33;;
68108;SDS011;54893;49.864;19.084;2022-12-05T04:04:36;101.43;;;28.55;;
68108;SDS011;54893;49.864;19.084;2022-12-05T04:09:48;100.90;;;29.17;;
68108;SDS011;54893;49.864;19.084;2022-12-05T04:14:59;90.73;;;25.73;;
68108;SDS011;54893;49.864;19.084;2022-12-05T04:20:45;87.32;;;27.55;;
68108;SDS011;54893;49.864;19.084;2022-12-05T04:26:10;113.53;;;33.40;;
68108;SDS011;54893;49.864;19.084;2022-12-05T04:31:21;112.63;;;32.75;;
68108;SDS011;54893;49.864;19.084;2022-12-05T04:41:40;87.30;;;23.93;;
68108;SDS011;54893;49.864;19.084;2022-12-05T04:46:44;88.80;;;25.10;;
68108;SDS011;54893;49.864;19.084;2022-12-05T04:51:48;77.67;;;23.27;;
68108;SDS011;54893;49.864;19.084;2022-12-05T04:56:52;86.32;;;25.13;;
68108;SDS011;54893;49.864;19.084;2022-12-05T05:01:57;85.43;;;25.23;;
68108;SDS011;54893;49.864;19.084;2022-12-05T05:07:05;81.73;;;24.87;;
68108;SDS011;54893;49.864;19.084;2022-12-05T05:12:10;88.80;;;25.63;;
68108;SDS011;54893;49.864;19.084;2022-12-05T05:17:10;97.90;;;29.63;;
68108;SDS011;54893;49.864;19.084;2022-12-05T05:22:11;100.10;;;28.30;;
68108;SDS011;54893;49.864;19.084;2022-12-05T05:27:11;138.38;;;38.95;;
68108;SDS011;54893;49.864;19.084;2022-12-05T05:32:11;100.53;;;29.23;;
68108;SDS011;54893;49.864;19.084;2022-12-05T05:37:12;90.50;;;27.33;;
68108;SDS011;54893;49.864;19.084;2022-12-05T05:42:12;106.40;;;31.93;;
68108;SDS011;54893;49.864;19.084;2022-12-05T05:47:12;101.70;;;30.27;;
68108;SDS011;54893;49.864;19.084;2022-12-05T05:52:12;128.80;;;32.90;;
68108;SDS011;54893;49.864;19.084;2022-12-05T05:57:13;136.48;;;34.78;;
68108;SDS011;54893;49.864;19.084;2022-12-05T06:02:13;149.23;;;35.55;;
68108;SDS011;54893;49.864;19.084;2022-12-05T06:07:13;216.98;;;40.97;;
68108;SDS011;54893;49.864;19.084;2022-12-05T06:12:14;169.13;;;33.97;;
68108;SDS011;54893;49.864;19.084;2022-12-05T06:17:14;210.45;;;35.90;;
68108;SDS011;54893;49.864;19.084;2022-12-05T06:22:15;236.50;;;32.70;;
68108;SDS011;54893;49.864;19.084;2022-12-05T06:27:15;289.52;;;38.20;;
68108;SDS011;54893;49.864;19.084;2022-12-05T06:32:16;279.00;;;36.63;;
68108;SDS011;54893;49.864;19.084;2022-12-05T06:37:16;267.90;;;37.30;;
68108;SDS011;54893;49.864;19.084;2022-12-05T06:42:16;121.55;;;26.45;;
68108;SDS011;54893;49.864;19.084;2022-12-05T06:47:17;190.73;;;34.15;;
68108;SDS011;54893;49.864;19.084;2022-12-05T06:52:17;208.93;;;33.00;;
68108;SDS011;54893;49.864;19.084;2022-12-05T06:57:17;235.70;;;32.77;;
68108;SDS011;54893;49.864;19.084;2022-12-05T07:02:17;228.43;;;35.23;;
68108;SDS011;54893;49.864;19.084;2022-12-05T07:07:18;305.08;;;36.58;;
68108;SDS011;54893;49.864;19.084;2022-12-05T07:12:18;284.10;;;41.30;;
68108;SDS011;54893;49.864;19.084;2022-12-05T07:17:19;493.80;;;111.67;;
68108;SDS011;54893;49.864;19.084;2022-12-05T07:22:21;254.48;;;39.53;;
68108;SDS011;54893;49.864;19.084;2022-12-05T07:27:22;241.68;;;40.08;;
68108;SDS011;54893;49.864;19.084;2022-12-05T07:32:22;380.38;;;70.90;;
68108;SDS011;54893;49.864;19.084;2022-12-05T07:37:23;372.03;;;55.50;;
68108;SDS011;54893;49.864;19.084;2022-12-05T07:42:23;450.47;;;92.43;;
68108;SDS011;54893;49.864;19.084;2022-12-05T07:47:23;237.80;;;37.23;;
68108;SDS011;54893;49.864;19.084;2022-12-05T07:52:24;346.80;;;42.53;;
68108;SDS011;54893;49.864;19.084;2022-12-05T07:57:24;330.33;;;61.00;;
68108;SDS011;54893;49.864;19.084;2022-12-05T08:02:24;302.70;;;69.65;;
68108;SDS011;54893;49.864;19.084;2022-12-05T08:07:25;344.83;;;63.53;;
68108;SDS011;54893;49.864;19.084;2022-12-05T08:12:25;305.03;;;43.40;;
68108;SDS011;54893;49.864;19.084;2022-12-05T08:17:28;307.40;;;55.90;;
68108;SDS011;54893;49.864;19.084;2022-12-05T08:22:28;277.75;;;41.25;;
68108;SDS011;54893;49.864;19.084;2022-12-05T08:27:29;260.17;;;36.73;;
68108;SDS011;54893;49.864;19.084;2022-12-05T08:32:29;252.17;;;34.00;;
68108;SDS011;54893;49.864;19.084;2022-12-05T08:37:29;217.03;;;37.50;;
68108;SDS011;54893;49.864;19.084;2022-12-05T08:42:30;181.00;;;39.33;;
68108;SDS011;54893;49.864;19.084;2022-12-05T08:47:30;247.07;;;40.43;;
68108;SDS011;54893;49.864;19.084;2022-12-05T08:52:30;211.17;;;35.43;;
68108;SDS011;54893;49.864;19.084;2022-12-05T08:57:31;187.13;;;33.53;;
68108;SDS011;54893;49.864;19.084;2022-12-05T09:02:31;152.93;;;30.20;;
68108;SDS011;54893;49.864;19.084;2022-12-05T09:07:32;159.63;;;28.75;;
68108;SDS011;54893;49.864;19.084;2022-12-05T09:12:34;141.90;;;28.93;;
68108;SDS011;54893;49.864;19.084;2022-12-05T09:17:36;129.57;;;31.02;;
68108;SDS011;54893;49.864;19.084;2022-12-05T09:22:37;116.43;;;31.63;;
68108;SDS011;54893;49.864;19.084;2022-12-05T09:27:37;242.77;;;38.60;;
68108;SDS011;54893;49.864;19.084;2022-12-05T09:32:37;162.90;;;32.17;;
68108;SDS011;54893;49.864;19.084;2022-12-05T09:37:38;135.98;;;29.67;;
68108;SDS011;54893;49.864;19.084;2022-12-05T09:43:21;364.53;;;100.93;;
68108;SDS011;54893;49.864;19.084;2022-12-05T09:48:06;151.10;;;42.40;;
68108;SDS011;54893;49.864;19.084;2022-12-05T09:53:38;336.70;;;103.38;;
68108;SDS011;54893;49.864;19.084;2022-12-05T10:03:47;134.40;;;31.13;;
68108;SDS011;54893;49.864;19.084;2022-12-05T10:19:41;106.97;;;30.67;;
68108;SDS011;54893;49.864;19.084;2022-12-05T10:24:45;183.75;;;48.63;;
68108;SDS011;54893;49.864;19.084;2022-12-05T10:30:17;116.50;;;33.38;;
68108;SDS011;54893;49.864;19.084;2022-12-05T10:35:27;130.98;;;38.22;;
68108;SDS011;54893;49.864;19.084;2022-12-05T10:40:54;145.43;;;42.73;;
68108;SDS011;54893;49.864;19.084;2022-12-05T10:45:54;152.68;;;36.40;;
68108;SDS011;54893;49.864;19.084;2022-12-05T10:50:55;119.73;;;34.87;;
68108;SDS011;54893;49.864;19.084;2022-12-05T10:55:57;132.45;;;42.60;;
68108;SDS011;54893;49.864;19.084;2022-12-05T11:01:02;95.07;;;26.33;;
68108;SDS011;54893;49.864;19.084;2022-12-05T11:06:20;109.28;;;32.08;;
68108;SDS011;54893;49.864;19.084;2022-12-05T11:11:25;104.37;;;33.87;;
68108;SDS011;54893;49.864;19.084;2022-12-05T11:16:33;123.93;;;28.50;;
68108;SDS011;54893;49.864;19.084;2022-12-05T11:21:40;110.22;;;28.88;;
68108;SDS011;54893;49.864;19.084;2022-12-05T11:26:42;103.75;;;35.10;;
68108;SDS011;54893;49.864;19.084;2022-12-05T11:31:44;114.20;;;38.47;;
68108;SDS011;54893;49.864;19.084;2022-12-05T11:36:52;91.03;;;27.43;;
68108;SDS011;54893;49.864;19.084;2022-12-05T11:42:09;99.75;;;29.77;;
68108;SDS011;54893;49.864;19.084;2022-12-05T12:08:47;92.82;;;33.25;;
68108;SDS011;54893;49.864;19.084;2022-12-05T12:19:46;67.28;;;20.52;;
68108;SDS011;54893;49.864;19.084;2022-12-05T12:30:36;82.40;;;26.37;;
68108;SDS011;54893;49.864;19.084;2022-12-05T12:40:55;82.43;;;26.23;;
68108;SDS011;54893;49.864;19.084;2022-12-05T12:51:19;83.43;;;26.63;;
68108;SDS011;54893;49.864;19.084;2022-12-05T12:56:23;78.63;;;24.43;;
68108;SDS011;54893;49.864;19.084;2022-12-05T13:01:31;82.90;;;27.50;;
68108;SDS011;54893;49.864;19.084;2022-12-05T13:06:56;85.50;;;26.67;;
68108;SDS011;54893;49.864;19.084;2022-12-05T13:12:01;81.75;;;26.30;;
68108;SDS011;54893;49.864;19.084;2022-12-05T13:17:07;76.87;;;25.00;;
68108;SDS011;54893;49.864;19.084;2022-12-05T13:22:11;84.53;;;27.05;;
68108;SDS011;54893;49.864;19.084;2022-12-05T13:27:16;83.60;;;27.40;;
68108;SDS011;54893;49.864;19.084;2022-12-05T13:32:34;132.02;;;49.42;;
68108;SDS011;54893;49.864;19.084;2022-12-05T13:37:43;369.42;;;125.97;;
68108;SDS011;54893;49.864;19.084;2022-12-05T13:43:04;414.77;;;141.03;;
68108;SDS011;54893;49.864;19.084;2022-12-05T13:48:23;155.00;;;52.85;;
68108;SDS011;54893;49.864;19.084;2022-12-05T13:53:34;113.10;;;37.33;;
68108;SDS011;54893;49.864;19.084;2022-12-05T13:58:40;137.07;;;45.72;;
68108;SDS011;54893;49.864;19.084;2022-12-05T14:08:50;122.95;;;39.83;;
68108;SDS011;54893;49.864;19.084;2022-12-05T14:13:52;117.53;;;39.95;;
68108;SDS011;54893;49.864;19.084;2022-12-05T14:18:57;131.70;;;45.27;;
68108;SDS011;54893;49.864;19.084;2022-12-05T14:24:25;185.73;;;69.35;;
68108;SDS011;54893;49.864;19.084;2022-12-05T14:30:02;194.05;;;71.05;;
68108;SDS011;54893;49.864;19.084;2022-12-05T14:35:15;239.47;;;84.23;;
68108;SDS011;54893;49.864;19.084;2022-12-05T14:45:27;230.60;;;98.27;;
68108;SDS011;54893;49.864;19.084;2022-12-05T14:50:39;159.57;;;55.42;;
68108;SDS011;54893;49.864;19.084;2022-12-05T15:01:21;188.40;;;65.60;;
68108;SDS011;54893;49.864;19.084;2022-12-05T15:06:22;185.73;;;59.92;;
68108;SDS011;54893;49.864;19.084;2022-12-05T15:11:24;178.20;;;58.13;;
68108;SDS011;54893;49.864;19.084;2022-12-05T15:16:28;170.02;;;56.95;;
68108;SDS011;54893;49.864;19.084;2022-12-05T15:21:41;167.48;;;58.40;;
68108;SDS011;54893;49.864;19.084;2022-12-05T15:31:58;167.75;;;54.65;;
68108;SDS011;54893;49.864;19.084;2022-12-05T15:42:35;168.15;;;55.38;;
68108;SDS011;54893;49.864;19.084;2022-12-05T15:47:43;170.70;;;57.50;;
68108;SDS011;54893;49.864;19.084;2022-12-05T15:52:56;157.03;;;55.67;;
68108;SDS011;54893;49.864;19.084;2022-12-05T16:08:45;190.63;;;63.42;;
68108;SDS011;54893;49.864;19.084;2022-12-05T16:13:51;206.30;;;70.70;;
68108;SDS011;54893;49.864;19.084;2022-12-05T16:18:56;192.70;;;70.73;;
68108;SDS011;54893;49.864;19.084;2022-12-05T16:23:59;207.90;;;75.45;;
68108;SDS011;54893;49.864;19.084;2022-12-05T16:29:01;218.23;;;78.53;;
68108;SDS011;54893;49.864;19.084;2022-12-05T16:34:07;232.05;;;84.32;;
68108;SDS011;54893;49.864;19.084;2022-12-05T16:39:14;227.68;;;86.97;;
68108;SDS011;54893;49.864;19.084;2022-12-05T16:49:35;312.65;;;110.30;;
68108;SDS011;54893;49.864;19.084;2022-12-05T16:54:35;290.37;;;101.40;;
68108;SDS011;54893;49.864;19.084;2022-12-05T16:59:37;317.83;;;112.83;;
68108;SDS011;54893;49.864;19.084;2022-12-05T17:04:38;306.52;;;114.53;;
68108;SDS011;54893;49.864;19.084;2022-12-05T17:09:38;307.03;;;113.03;;
68108;SDS011;54893;49.864;19.084;2022-12-05T17:14:39;346.67;;;122.67;;
68108;SDS011;54893;49.864;19.084;2022-12-05T17:19:39;321.37;;;119.77;;
68108;SDS011;54893;49.864;19.084;2022-12-05T17:24:39;381.17;;;140.90;;
68108;SDS011;54893;49.864;19.084;2022-12-05T17:29:40;379.53;;;143.97;;
68108;SDS011;54893;49.864;19.084;2022-12-05T17:34:40;270.17;;;105.67;;
68108;SDS011;54893;49.864;19.084;2022-12-05T17:39:41;268.77;;;101.07;;
68108;SDS011;54893;49.864;19.084;2022-12-05T17:44:41;239.10;;;94.85;;
68108;SDS011;54893;49.864;19.084;2022-12-05T17:49:41;227.43;;;95.80;;
68108;SDS011;54893;49.864;19.084;2022-12-05T17:54:42;263.07;;;113.33;;
68108;SDS011;54893;49.864;19.084;2022-12-05T17:59:43;272.93;;;116.90;;
68108;SDS011;54893;49.864;19.084;2022-12-05T18:04:43;309.15;;;126.63;;
68108;SDS011;54893;49.864;19.084;2022-12-05T18:09:43;383.58;;;150.77;;
68108;SDS011;54893;49.864;19.084;2022-12-05T18:14:44;368.43;;;149.57;;
68108;SDS011;54893;49.864;19.084;2022-12-05T18:19:44;354.83;;;147.55;;
68108;SDS011;54893;49.864;19.084;2022-12-05T18:24:44;332.37;;;134.30;;
68108;SDS011;54893;49.864;19.084;2022-12-05T18:29:48;295.48;;;122.40;;
68108;SDS011;54893;49.864;19.084;2022-12-05T18:34:49;294.47;;;118.87;;
68108;SDS011;54893;49.864;19.084;2022-12-05T18:39:49;253.67;;;105.63;;
68108;SDS011;54893;49.864;19.084;2022-12-05T18:44:50;221.43;;;93.97;;
68108;SDS011;54893;49.864;19.084;2022-12-05T18:49:51;214.60;;;90.90;;
68108;SDS011;54893;49.864;19.084;2022-12-05T18:54:51;205.17;;;84.30;;
68108;SDS011;54893;49.864;19.084;2022-12-05T18:59:52;193.98;;;78.68;;
68108;SDS011;54893;49.864;19.084;2022-12-05T19:04:52;151.18;;;60.15;;
68108;SDS011;54893;49.864;19.084;2022-12-05T19:09:52;152.17;;;61.43;;
68108;SDS011;54893;49.864;19.084;2022-12-05T19:14:53;137.80;;;53.20;;
68108;SDS011;54893;49.864;19.084;2022-12-05T19:19:53;137.67;;;55.87;;
68108;SDS011;54893;49.864;19.084;2022-12-05T19:24:55;135.87;;;53.40;;
68108;SDS011;54893;49.864;19.084;2022-12-05T19:29:56;167.87;;;63.77;;
68108;SDS011;54893;49.864;19.084;2022-12-05T19:34:56;337.07;;;136.07;;
68108;SDS011;54893;49.864;19.084;2022-12-05T19:39:56;360.70;;;144.10;;
68108;SDS011;54893;49.864;19.084;2022-12-05T19:44:57;397.08;;;164.60;;
68108;SDS011;54893;49.864;19.084;2022-12-05T19:49:57;337.37;;;141.97;;
68108;SDS011;54893;49.864;19.084;2022-12-05T19:54:57;285.93;;;120.13;;
68108;SDS011;54893;49.864;19.084;2022-12-05T19:59:58;303.08;;;124.00;;
68108;SDS011;54893;49.864;19.084;2022-12-05T20:04:58;292.77;;;120.10;;
68108;SDS011;54893;49.864;19.084;2022-12-05T20:09:58;276.80;;;107.97;;
68108;SDS011;54893;49.864;19.084;2022-12-05T20:14:58;221.18;;;91.80;;
68108;SDS011;54893;49.864;19.084;2022-12-05T20:19:59;290.83;;;116.63;;
68108;SDS011;54893;49.864;19.084;2022-12-05T20:24:59;229.23;;;95.27;;
68108;SDS011;54893;49.864;19.084;2022-12-05T20:30:00;274.90;;;112.00;;
68108;SDS011;54893;49.864;19.084;2022-12-05T20:35:00;323.70;;;129.40;;
68108;SDS011;54893;49.864;19.084;2022-12-05T20:40:01;349.53;;;133.97;;
68108;SDS011;54893;49.864;19.084;2022-12-05T20:45:01;356.27;;;139.88;;
68108;SDS011;54893;49.864;19.084;2022-12-05T20:50:02;253.07;;;100.95;;
68108;SDS011;54893;49.864;19.084;2022-12-05T20:55:02;316.97;;;127.07;;
68108;SDS011;54893;49.864;19.084;2022-12-05T21:00:03;279.83;;;113.03;;
68108;SDS011;54893;49.864;19.084;2022-12-05T21:05:04;411.97;;;161.70;;
68108;SDS011;54893;49.864;19.084;2022-12-05T21:10:05;255.48;;;105.97;;
68108;SDS011;54893;49.864;19.084;2022-12-05T21:15:05;357.27;;;142.60;;
68108;SDS011;54893;49.864;19.084;2022-12-05T21:20:06;450.67;;;174.68;;
68108;SDS011;54893;49.864;19.084;2022-12-05T21:25:07;458.43;;;163.13;;
68108;SDS011;54893;49.864;19.084;2022-12-05T21:30:07;446.77;;;166.83;;
68108;SDS011;54893;49.864;19.084;2022-12-05T21:35:09;396.10;;;148.63;;
68108;SDS011;54893;49.864;19.084;2022-12-05T21:40:10;440.88;;;158.75;;
68108;SDS011;54893;49.864;19.084;2022-12-05T21:45:10;439.90;;;158.50;;
68108;SDS011;54893;49.864;19.084;2022-12-05T21:50:11;402.70;;;141.87;;
68108;SDS011;54893;49.864;19.084;2022-12-05T21:55:11;458.57;;;166.70;;
68108;SDS011;54893;49.864;19.084;2022-12-05T22:00:12;481.33;;;178.90;;
68108;SDS011;54893;49.864;19.084;2022-12-05T22:05:12;485.02;;;171.07;;
68108;SDS011;54893;49.864;19.084;2022-12-05T22:10:13;466.53;;;161.97;;
68108;SDS011;54893;49.864;19.084;2022-12-05T22:15:13;422.50;;;144.60;;
68108;SDS011;54893;49.864;19.084;2022-12-05T22:20:14;393.60;;;138.70;;
68108;SDS011;54893;49.864;19.084;2022-12-05T22:25:14;380.87;;;135.00;;
68108;SDS011;54893;49.864;19.084;2022-12-05T22:30:16;402.87;;;141.27;;
68108;SDS011;54893;49.864;19.084;2022-12-05T22:35:16;453.40;;;149.27;;
68108;SDS011;54893;49.864;19.084;2022-12-05T22:40:16;550.20;;;162.45;;
68108;SDS011;54893;49.864;19.084;2022-12-05T22:45:17;506.10;;;153.43;;
68108;SDS011;54893;49.864;19.084;2022-12-05T22:50:17;440.40;;;142.37;;
68108;SDS011;54893;49.864;19.084;2022-12-05T22:55:17;438.87;;;145.60;;
68108;SDS011;54893;49.864;19.084;2022-12-05T23:00:18;416.10;;;138.27;;
68108;SDS011;54893;49.864;19.084;2022-12-05T23:05:18;420.10;;;140.93;;
68108;SDS011;54893;49.864;19.084;2022-12-05T23:10:19;412.92;;;135.75;;
68108;SDS011;54893;49.864;19.084;2022-12-05T23:15:19;383.70;;;129.17;;
68108;SDS011;54893;49.864;19.084;2022-12-05T23:20:19;392.10;;;130.90;;
68108;SDS011;54893;49.864;19.084;2022-12-05T23:25:20;387.60;;;129.70;;
68108;SDS011;54893;49.864;19.084;2022-12-05T23:30:20;382.23;;;127.80;;
68108;SDS011;54893;49.864;19.084;2022-12-05T23:35:20;373.60;;;130.40;;
68108;SDS011;54893;49.864;19.084;2022-12-05T23:40:21;404.60;;;133.50;;
68108;SDS011;54893;49.864;19.084;2022-12-05T23:45:21;360.70;;;130.40;;
68108;SDS011;54893;49.864;19.084;2022-12-05T23:50:21;360.87;;;126.40;;
68108;SDS011;54893;49.864;19.084;2022-12-05T23:55:22;377.63;;;125.23;;
